createdAt,value
2024-04-17T02:38:17.279Z,6.71
2024-04-17T02:40:44.800Z,6.80
2024-04-17T02:43:12.288Z,6.85
2024-04-17T02:45:41.554Z,6.96
2024-04-17T02:48:09.230Z,7.00
2024-04-17T02:50:41.941Z,6.93
2024-04-17T02:53:09.899Z,6.81
2024-04-17T02:55:37.423Z,6.86
2024-04-17T02:58:05.012Z,6.96
2024-04-17T03:00:32.449Z,6.76
2024-04-17T03:03:00.028Z,6.93
2024-04-17T03:06:02.873Z,7.12
2024-04-17T03:08:30.384Z,7.19
2024-04-17T03:11:03.717Z,7.21
2024-04-17T03:13:31.643Z,7.12
2024-04-17T03:16:03.695Z,7.14
2024-04-17T03:18:32.280Z,7.28
2024-04-17T03:21:01.360Z,7.33
2024-04-17T03:23:29.470Z,7.33
2024-04-17T03:26:03.046Z,7.35
2024-04-17T03:28:30.735Z,7.51
2024-04-17T03:31:02.282Z,7.61
2024-04-17T03:33:30.192Z,7.71
2024-04-17T03:36:01.198Z,7.74
2024-04-17T03:38:29.147Z,7.84
2024-04-17T03:40:57.124Z,7.90
2024-04-17T03:43:25.194Z,7.82
2024-04-17T03:45:52.843Z,8.07
2024-04-17T03:48:20.743Z,8.07
2024-04-17T03:50:48.544Z,8.14
2024-04-17T04:39:43.592Z,8.64
2024-04-17T04:46:23.952Z,8.85
2024-04-17T04:48:51.688Z,8.99
2024-04-17T04:51:19.296Z,9.13
2024-04-17T05:38:50.046Z,10.30
2024-04-17T05:41:19.166Z,10.37
2024-04-17T05:43:47.715Z,10.85
2024-04-17T05:46:19.073Z,11.12
2024-04-17T05:48:51.113Z,11.09
2024-04-17T05:51:56.529Z,11.31
2024-04-17T05:54:24.523Z,11.04
2024-04-17T05:56:52.658Z,11.30
2024-04-17T05:59:37.756Z,11.06
2024-04-17T06:05:40.617Z,11.62
2024-04-17T06:21:54.587Z,13.03
2024-04-17T06:24:33.502Z,13.00
2024-04-17T06:27:10.764Z,12.71
2024-04-17T06:29:38.877Z,12.57
2024-04-17T06:32:08.196Z,12.46
2024-04-17T06:35:38.799Z,12.17
2024-04-17T06:38:06.825Z,11.80
2024-04-17T06:44:40.257Z,11.83
2024-04-17T07:00:58.011Z,11.92
2024-04-17T07:03:31.914Z,11.76
2024-04-17T07:16:20.783Z,12.33
2024-04-17T07:18:48.357Z,12.62
2024-04-17T07:21:48.616Z,13.09
2024-04-17T07:24:16.222Z,13.16
2024-04-17T07:26:43.686Z,13.00
2024-04-17T07:29:11.486Z,13.23
2024-04-17T07:31:39.294Z,13.30
2024-04-17T07:37:43.412Z,14.31
2024-04-17T07:40:11.054Z,14.78
2024-04-17T08:11:04.119Z,13.68
2024-04-17T08:13:31.752Z,13.55
2024-04-17T08:22:54.465Z,12.85
2024-04-17T08:32:20.952Z,12.63
2024-04-17T08:35:00.588Z,12.64
2024-04-17T08:48:34.725Z,12.56
2024-04-17T08:55:22.728Z,12.60
2024-04-17T08:57:50.404Z,12.50
2024-04-17T09:00:28.144Z,11.94
2024-04-17T12:10:42.834Z,11.90
2024-04-17T12:13:17.531Z,11.79
2024-04-17T12:15:46.368Z,11.83
2024-04-17T12:21:41.269Z,11.85
2024-04-17T12:24:18.216Z,12.00
2024-04-17T12:27:32.006Z,12.33
2024-04-17T12:39:51.879Z,12.09
2024-04-17T12:42:49.020Z,12.12
2024-04-17T12:45:17.171Z,11.74
2024-04-17T12:47:46.032Z,11.60
2024-04-17T12:50:13.527Z,11.73
2024-04-17T12:52:41.334Z,11.67
2024-04-17T12:55:09.022Z,11.78
2024-04-17T12:57:36.575Z,12.04
2024-04-17T13:00:05.014Z,11.99
2024-04-17T13:02:43.146Z,12.11
2024-04-17T13:05:11.119Z,12.06
2024-04-17T13:07:40.955Z,12.03
2024-04-17T13:10:10.310Z,11.93
2024-04-17T13:12:38.308Z,11.60
2024-04-17T13:15:06.995Z,11.67
2024-04-17T13:17:35.267Z,11.62
2024-04-17T13:20:07.339Z,11.32
2024-04-17T13:22:35.778Z,11.35
2024-04-17T13:25:09.539Z,11.42
2024-04-17T13:27:38.111Z,11.40
2024-04-17T13:30:09.151Z,11.42
2024-04-17T13:32:39.119Z,11.51
2024-04-17T13:35:13.918Z,11.47
2024-04-17T13:37:45.822Z,11.07
2024-04-17T13:40:13.710Z,10.93
2024-04-17T14:01:28.739Z,10.82
2024-04-17T14:35:48.039Z,10.17
2024-04-17T14:41:42.597Z,9.27
2024-04-17T14:44:44.775Z,9.35
2024-04-17T15:50:12.828Z,7.69
2024-04-17T16:03:10.219Z,7.67
2024-04-17T16:06:12.225Z,7.75
2024-04-17T16:08:58.656Z,7.63
2024-04-17T16:11:27.172Z,7.63
2024-04-17T16:14:00.731Z,7.87
2024-04-17T16:16:29.260Z,7.85
2024-04-17T16:19:00.078Z,7.88
2024-04-17T16:39:07.446Z,8.09
2024-04-17T16:49:04.912Z,8.04
2024-04-17T16:55:35.031Z,8.11
2024-04-17T17:01:45.299Z,7.96
2024-04-17T17:04:15.509Z,8.31
2024-04-17T17:06:43.633Z,8.13
2024-04-17T17:09:34.779Z,8.29
2024-04-17T17:12:06.703Z,8.30
2024-04-17T20:00:30.046Z,8.38
2024-04-17T20:06:25.035Z,8.13
2024-04-17T22:17:49.782Z,7.14
2024-04-17T22:20:26.714Z,7.12
2024-04-17T22:22:54.578Z,7.23
2024-04-17T22:25:22.487Z,7.01
2024-04-17T22:27:50.697Z,7.28
2024-04-17T22:30:18.917Z,7.10
2024-04-17T22:36:13.008Z,7.22
2024-04-17T22:38:41.473Z,7.00
2024-04-17T22:41:29.664Z,7.34
2024-04-17T22:44:21.618Z,7.46
2024-04-17T22:46:51.681Z,7.60
2024-04-17T22:49:19.156Z,7.62
2024-04-17T22:51:46.953Z,7.78
2024-04-17T22:54:16.817Z,7.78
2024-04-17T22:56:44.568Z,7.68
2024-04-17T22:59:12.215Z,7.68
2024-04-17T23:01:41.557Z,7.56
2024-04-17T23:04:35.946Z,7.12
2024-04-17T23:07:06.075Z,6.91
2024-04-17T23:10:07.503Z,7.20
2024-04-17T23:12:38.033Z,7.07
2024-04-17T23:15:32.662Z,7.01
2024-04-17T23:18:00.771Z,7.09
2024-04-17T23:20:29.085Z,7.25
2024-04-17T23:22:57.231Z,7.24
2024-04-17T23:25:26.875Z,7.15
2024-04-17T23:31:52.722Z,6.94
2024-04-17T23:34:21.756Z,6.87
2024-04-17T23:36:49.462Z,7.11
2024-04-17T23:39:17.765Z,7.20
2024-04-17T23:42:31.462Z,7.36
2024-04-17T23:45:27.480Z,7.47
2024-04-17T23:51:31.740Z,7.00
2024-04-17T23:57:38.280Z,6.97
